Time;durP1;ratioP1;P1;durP2;ratioP2;P2;SDS_P1;SDS_P2;PMS_P1;PMS_P2;Temp;Humidity;BMP_temperature;BMP_pressure;BME280_temperature;BME280_humidity;BME280_pressure;Samples;Min_cycle;Max_cycle;Signal;HPM_P1;HPM_P2
2023/12/18 00:00:53;;;;;;;8.00;5.30;;;;;;;7.65;100.00;101601.85;110579;1264;23781;-80
2023/12/18 00:03:42;;;;;;;9.10;5.90;;;;;;;7.64;100.00;101603.92;110758;1261;23498;-82
2023/12/18 00:06:13;;;;;;;7.50;5.20;;;;;;;7.67;100.00;101599.75;111078;1256;22013;-81
2023/12/18 00:08:48;;;;;;;8.40;6.40;;;;;;;7.68;100.00;101596.27;111350;1256;22049;-81
2023/12/18 00:11:23;;;;;;;11.10;6.50;;;;;;;7.70;100.00;101591.59;111112;1256;21973;-80
2023/12/18 00:14:02;;;;;;;7.30;4.90;;;;;;;7.70;100.00;101593.14;111260;1256;21961;-80
2023/12/18 00:16:33;;;;;;;7.40;5.50;;;;;;;7.70;100.00;101595.41;111183;1250;23823;-82
2023/12/18 00:19:05;;;;;;;8.80;5.70;;;;;;;7.69;100.00;101599.04;111212;1256;23602;-81
2023/12/18 00:21:38;;;;;;;8.30;5.20;;;;;;;7.68;100.00;101607.54;111304;1256;24324;-80
2023/12/18 00:24:11;;;;;;;7.50;5.20;;;;;;;7.66;100.00;101608.41;111293;1256;21967;-80
2023/12/18 00:26:41;;;;;;;8.60;5.30;;;;;;;7.64;100.00;101599.95;111370;1256;21986;-81
2023/12/18 00:29:13;;;;;;;10.00;6.10;;;;;;;7.61;100.00;101592.51;111353;1252;23615;-80
2023/12/18 00:31:43;;;;;;;7.70;5.00;;;;;;;7.59;100.00;101588.36;111288;1256;21963;-83
2023/12/18 00:34:15;;;;;;;8.00;5.20;;;;;;;7.59;100.00;101587.49;111289;1256;23213;-81
2023/12/18 00:36:46;;;;;;;8.80;5.30;;;;;;;7.60;100.00;101588.01;111336;1256;23576;-81
2023/12/18 00:39:18;;;;;;;9.50;5.10;;;;;;;7.60;100.00;101591.81;111155;1256;21959;-81
2023/12/18 00:41:48;;;;;;;9.10;5.50;;;;;;;7.61;100.00;101584.19;110905;1260;21972;-80
2023/12/18 00:44:20;;;;;;;10.20;5.30;;;;;;;7.61;100.00;101579.50;111188;1256;22443;-81
2023/12/18 00:46:55;;;;;;;10.00;5.80;;;;;;;7.59;100.00;101577.45;111288;1256;21960;-80
2023/12/18 00:49:31;;;;;;;8.70;5.70;;;;;;;7.55;100.00;101579.72;110872;1261;21996;-80
2023/12/18 00:52:08;;;;;;;8.10;5.80;;;;;;;7.55;100.00;101577.81;110947;1261;23026;-81
2023/12/18 00:54:44;;;;;;;9.70;5.50;;;;;;;7.55;100.00;101573.14;110670;1261;21997;-81
2023/12/18 00:57:24;;;;;;;9.00;5.30;;;;;;;7.54;100.00;101580.06;110541;1261;23093;-81
2023/12/18 00:59:57;;;;;;;10.70;5.50;;;;;;;7.56;100.00;101573.98;110894;1259;21980;-79
2023/12/18 01:02:43;;;;;;;7.00;5.10;;;;;;;7.58;100.00;101572.08;110892;1259;22661;-81
2023/12/18 01:05:18;;;;;;;8.00;5.10;;;;;;;7.59;100.00;101569.30;111066;1246;23045;-80
2023/12/18 01:07:52;;;;;;;7.70;4.80;;;;;;;7.61;100.00;101567.90;111240;1252;23656;-79
2023/12/18 01:10:24;;;;;;;9.00;5.90;;;;;;;7.61;100.00;101563.73;111679;1252;21981;-80
2023/12/18 01:12:55;;;;;;;7.80;5.00;;;;;;;7.61;100.00;101562.17;110980;1251;22060;-80
2023/12/18 01:15:30;;;;;;;8.50;5.30;;;;;;;7.60;100.00;101560.46;110986;1259;21977;-80
2023/12/18 01:18:05;;;;;;;6.90;5.30;;;;;;;7.57;100.00;101559.27;110816;1259;21944;-82
2023/12/18 01:20:38;;;;;;;9.10;5.40;;;;;;;7.55;100.00;101557.02;110925;1259;21974;-80
2023/12/18 01:23:11;;;;;;;8.10;5.40;;;;;;;7.52;100.00;101557.75;110744;1261;22052;-81
2023/12/18 01:25:46;;;;;;;7.50;5.50;;;;;;;7.50;100.00;101556.73;110447;1261;24144;-80
2023/12/18 01:28:20;;;;;;;7.50;5.40;;;;;;;7.50;100.00;101554.98;110907;1261;23014;-80
2023/12/18 01:30:50;;;;;;;7.40;4.80;;;;;;;7.50;100.00;101553.08;110562;1258;22178;-79
2023/12/18 01:33:23;;;;;;;9.70;4.90;;;;;;;7.51;100.00;101549.27;111067;1258;22137;-81
2023/12/18 01:35:56;;;;;;;8.80;5.40;;;;;;;7.50;100.00;101549.95;110969;1258;23022;-80
2023/12/18 01:38:26;;;;;;;8.00;4.70;;;;;;;7.50;100.00;101548.05;110917;1258;23067;-79
2023/12/18 01:41:01;;;;;;;8.10;5.20;;;;;;;7.49;100.00;101548.40;110808;1258;21987;-80
2023/12/18 01:43:37;;;;;;;8.30;4.90;;;;;;;7.47;100.00;101549.11;110760;1262;23727;-80
2023/12/18 01:46:17;;;;;;;6.30;4.70;;;;;;;7.45;100.00;101547.73;110395;1262;21982;-81
2023/12/18 01:48:50;;;;;;;9.30;5.40;;;;;;;7.42;100.00;101546.36;110369;1262;21988;-80
2023/12/18 01:51:22;;;;;;;7.30;4.70;;;;;;;7.41;100.00;101543.95;110880;1262;24420;-79
2023/12/18 01:53:56;;;;;;;;;;;;;;;7.39;100.00;101551.23;110703;1262;21929;-81
2023/12/18 01:56:30;;;;;;;7.70;4.30;;;;;;;7.27;100.00;101545.07;110944;1262;23029;-81
2023/12/18 01:59:11;;;;;;;5.10;3.90;;;;;;;7.30;100.00;101545.74;110765;1262;21971;-80
2023/12/18 02:01:47;;;;;;;8.70;5.50;;;;;;;7.34;100.00;101541.56;110792;1258;21989;-80
2023/12/18 02:04:19;;;;;;;7.00;4.70;;;;;;;7.37;100.00;101537.39;111027;1244;23033;-82
2023/12/18 02:06:55;;;;;;;8.20;4.30;;;;;;;7.40;100.00;101536.84;111454;1252;21967;-80
2023/12/18 02:09:28;;;;;;;6.30;5.00;;;;;;;7.41;100.00;101537.53;111547;1252;23814;-81
2023/12/18 02:12:00;;;;;;;5.50;4.10;;;;;;;7.42;100.00;101533.02;111513;1252;21958;-82
2023/12/18 02:14:39;;;;;;;7.40;4.50;;;;;;;7.42;100.00;101537.35;111555;1252;23677;-82
2023/12/18 02:17:12;;;;;;;5.40;4.30;;;;;;;7.40;100.00;101535.98;111430;1252;23012;-82
2023/12/18 02:19:45;;;;;;;9.60;4.90;;;;;;;7.39;100.00;101537.54;111720;1252;21979;-81
2023/12/18 02:22:17;;;;;;;6.20;4.40;;;;;;;7.38;100.00;101538.59;111111;1257;21965;-81
2023/12/18 02:24:51;;;;;;;5.70;4.50;;;;;;;7.37;100.00;101539.81;110737;1262;22309;-82
2023/12/18 02:27:27;;;;;;;8.10;4.60;;;;;;;7.39;100.00;101536.34;110717;1262;21983;-80
2023/12/18 02:30:01;;;;;;;6.30;4.60;;;;;;;7.39;100.00;101536.86;110569;1264;21997;-81
2023/12/18 02:32:39;;;;;;;7.40;4.90;;;;;;;7.40;100.00;101537.53;110387;1265;22004;-80
2023/12/18 02:35:16;;;;;;;8.10;4.40;;;;;;;7.44;100.00;101540.63;109995;1265;23736;-81
2023/12/18 02:37:48;;;;;;;6.00;4.30;;;;;;;7.47;100.00;101543.40;110409;1265;23743;-82
2023/12/18 02:40:21;;;;;;;7.80;4.80;;;;;;;7.50;100.00;101539.91;110301;1261;22053;-83
2023/12/18 02:42:54;;;;;;;6.00;4.00;;;;;;;7.52;100.00;101542.84;111019;1256;22406;-84
2023/12/18 02:45:37;;;;;;;6.40;4.00;;;;;;;7.55;100.00;101537.45;111387;1250;21966;-83
2023/12/18 02:48:09;;;;;;;5.80;4.70;;;;;;;7.57;100.00;101534.33;111339;1255;22146;-82
2023/12/18 02:50:54;;;;;;;6.30;4.50;;;;;;;7.58;100.00;101528.08;111262;1255;23758;-82
2023/12/18 02:53:26;;;;;;;5.60;4.50;;;;;;;7.59;100.00;101525.14;110858;1260;23029;-81
2023/12/18 02:55:56;;;;;;;5.50;3.90;;;;;;;7.62;100.00;101523.03;110540;1262;21991;-82
2023/12/18 02:58:35;;;;;;;5.30;4.20;;;;;;;7.64;100.00;101518.85;110716;1262;21967;-82
2023/12/18 03:01:11;;;;;;;5.70;3.70;;;;;;;7.68;100.00;101518.30;110365;1267;21993;-80
2023/12/18 03:03:43;;;;;;;4.80;3.80;;;;;;;7.70;100.00;101521.23;110330;1266;21975;-82
2023/12/18 03:06:15;;;;;;;6.70;4.20;;;;;;;7.71;100.00;101519.33;110334;1267;21977;-84
2023/12/18 03:08:45;;;;;;;;;;;;;;;7.72;100.00;101521.23;109861;1271;23056;-81
2023/12/18 03:11:17;;;;;;;4.10;3.50;;;;;;;7.65;100.00;101521.80;109935;1267;23800;-80
2023/12/18 03:13:49;;;;;;;6.20;3.80;;;;;;;7.66;100.00;101524.56;109934;1270;21992;-80
2023/12/18 03:16:21;;;;;;;6.40;4.10;;;;;;;7.72;100.00;101521.05;109675;1270;21978;-82
2023/12/18 03:18:52;;;;;;;5.50;4.40;;;;;;;7.78;100.00;101518.58;109894;1270;22029;-79
2023/12/18 03:21:32;;;;;;;9.40;4.50;;;;;;;7.83;100.00;101521.67;110246;1267;22063;-81
2023/12/18 03:24:11;;;;;;;5.70;4.40;;;;;;;7.88;100.00;101517.29;110486;1265;21973;-82
2023/12/18 03:26:41;;;;;;;8.30;4.00;;;;;;;7.94;100.00;101513.44;110835;1258;22956;-80
2023/12/18 03:29:29;;;;;;;6.60;4.40;;;;;;;7.99;100.00;101504.55;111101;1258;21977;-81
2023/12/18 03:32:00;;;;;;;5.70;4.50;;;;;;;8.03;100.00;101508.50;111284;1252;22442;-80
2023/12/18 03:34:36;;;;;;;5.30;4.70;;;;;;;8.05;100.00;101514.03;111536;1252;23009;-82
2023/12/18 03:37:18;;;;;;;9.20;8.20;;;;;;;8.09;100.00;101510.17;111485;1252;22702;-82
2023/12/18 03:39:59;;;;;;;7.90;5.10;;;;;;;8.13;100.00;101511.36;111519;1252;21982;-81
2023/12/18 03:42:41;;;;;;;8.70;4.70;;;;;;;8.16;100.00;101509.93;111628;1252;22443;-80
2023/12/18 03:45:13;;;;;;;5.50;4.10;;;;;;;8.20;100.00;101509.39;110974;1257;23669;-81
2023/12/18 03:47:44;;;;;;;6.40;4.40;;;;;;;8.23;100.00;101510.40;110977;1257;21980;-81
2023/12/18 03:50:19;;;;;;;6.80;5.10;;;;;;;8.25;100.00;101512.11;111013;1257;21940;-81
2023/12/18 03:52:53;;;;;;;8.20;4.60;;;;;;;8.26;100.00;101518.17;110959;1244;21982;-81
2023/12/18 03:55:26;;;;;;;8.10;5.40;;;;;;;8.27;100.00;101519.73;111357;1257;22048;-80
2023/12/18 03:57:55;;;;;;;;;;;;;;;8.25;100.00;101522.18;110871;1260;23697;-82
2023/12/18 04:00:25;;;;;;;6.80;5.60;;;;;;;8.13;100.00;101528.00;110935;1260;21966;-81
2023/12/18 04:02:58;;;;;;;5.60;4.90;;;;;;;8.13;100.00;101528.70;110884;1260;21956;-80
2023/12/18 04:05:29;;;;;;;5.90;4.70;;;;;;;8.15;100.00;101529.54;110627;1260;22035;-80
2023/12/18 04:08:03;;;;;;;10.40;5.50;;;;;;;8.18;100.00;101529.52;110361;1265;22005;-80
2023/12/18 04:10:32;;;;;;;6.30;5.10;;;;;;;8.19;100.00;101527.61;110418;1260;21974;-80
2023/12/18 04:13:04;;;;;;;7.30;5.40;;;;;;;8.18;100.00;101520.51;110609;1260;22065;-79
2023/12/18 04:15:36;;;;;;;10.30;7.70;;;;;;;8.18;100.00;101525.70;110710;1256;21955;-79
2023/12/18 04:18:08;;;;;;;9.10;6.20;;;;;;;8.19;100.00;101532.98;111067;1256;23846;-81
2023/12/18 04:20:38;;;;;;;6.50;5.10;;;;;;;8.20;100.00;101535.73;110760;1263;21991;-81
2023/12/18 04:23:08;;;;;;;15.40;11.80;;;;;;;8.22;100.00;101542.85;110678;1263;22984;-79
2023/12/18 04:25:45;;;;;;;6.10;5.50;;;;;;;8.21;100.00;101548.22;110878;1259;24380;-81
2023/12/18 04:28:27;;;;;;;8.80;5.20;;;;;;;8.20;100.00;101546.67;110676;1263;22727;-80
2023/12/18 04:30:56;;;;;;;7.90;5.20;;;;;;;8.18;100.00;101551.20;110068;1268;22345;-80
2023/12/18 04:33:30;;;;;;;5.80;5.10;;;;;;;8.20;100.00;101559.86;110008;1268;21982;-80
2023/12/18 04:36:03;;;;;;;7.60;5.60;;;;;;;8.21;100.00;101562.09;110134;1268;21976;-80
2023/12/18 04:38:40;;;;;;;;;;;;;;;8.23;100.00;101555.83;110236;1268;22185;-80
2023/12/18 04:41:22;;;;;;;8.20;5.80;;;;;;;8.14;100.00;101550.71;109777;1271;22986;-80
2023/12/18 04:43:58;;;;;;;7.90;5.00;;;;;;;8.13;100.00;101554.36;109262;1275;22029;-80
2023/12/18 04:46:35;;;;;;;6.00;4.80;;;;;;;8.14;100.00;101551.05;109352;1270;21989;-81
2023/12/18 04:49:09;;;;;;;6.00;4.80;;;;;;;8.14;100.00;101550.19;110004;1266;22492;-80
2023/12/18 04:51:50;;;;;;;6.50;5.50;;;;;;;8.16;100.00;101548.42;109825;1271;22032;-80
2023/12/18 04:54:26;;;;;;;10.70;5.40;;;;;;;8.18;100.00;101542.01;109828;1271;21972;-79
2023/12/18 04:56:59;;;;;;;6.40;5.10;;;;;;;8.18;100.00;101542.19;109601;1271;22009;-80
2023/12/18 04:59:29;;;;;;;8.60;6.30;;;;;;;8.18;100.00;101543.23;109450;1271;24131;-81
2023/12/18 05:01:59;;;;;;;5.90;5.20;;;;;;;8.18;100.00;101539.58;109827;1271;22266;-80
2023/12/18 05:04:33;;;;;;;9.70;6.00;;;;;;;8.18;100.00;101531.77;110022;1267;23791;-80
2023/12/18 05:07:03;;;;;;;8.20;5.50;;;;;;;8.20;100.00;101531.94;110431;1263;22473;-79
2023/12/18 05:09:39;;;;;;;5.60;4.90;;;;;;;8.20;100.00;101530.38;111251;1252;23547;-79
2023/12/18 05:12:14;;;;;;;7.60;4.80;;;;;;;8.17;100.00;101535.60;111543;1252;22360;-79
2023/12/18 05:14:49;;;;;;;6.20;5.50;;;;;;;8.13;100.00;101536.34;111059;1257;21987;-80
2023/12/18 05:17:25;;;;;;;7.00;5.80;;;;;;;8.12;100.00;101537.71;111140;1257;21963;-80
2023/12/18 05:20:06;;;;;;;8.20;6.10;;;;;;;8.14;100.00;101534.23;111279;1257;23653;-81
2023/12/18 05:22:39;;;;;;;8.80;6.90;;;;;;;8.15;100.00;101536.66;111331;1256;23607;-82
2023/12/18 05:25:16;;;;;;;7.80;6.70;;;;;;;8.15;100.00;101540.82;111361;1255;23706;-82
2023/12/18 05:27:49;;;;;;;9.80;7.40;;;;;;;8.16;100.00;101546.36;110827;1262;23631;-80
2023/12/18 05:30:23;;;;;;;9.60;6.80;;;;;;;8.18;100.00;101546.52;110776;1262;22067;-80
2023/12/18 05:33:00;;;;;;;9.10;6.90;;;;;;;8.18;100.00;101544.77;110978;1257;23023;-81
2023/12/18 05:35:35;;;;;;;11.60;7.60;;;;;;;8.17;100.00;101542.36;111257;1257;21935;-81
2023/12/18 05:38:07;;;;;;;8.30;6.70;;;;;;;8.15;100.00;101544.63;110973;1257;21981;-81
2023/12/18 05:40:44;;;;;;;9.70;7.90;;;;;;;8.13;100.00;101543.95;111240;1257;21979;-81
2023/12/18 05:43:14;;;;;;;12.70;8.00;;;;;;;8.10;100.00;101537.55;110989;1249;22971;-80
2023/12/18 05:45:47;;;;;;;8.30;7.10;;;;;;;8.09;100.00;101531.50;111148;1252;21959;-81
2023/12/18 05:48:28;;;;;;;10.40;7.20;;;;;;;8.09;100.00;101526.48;111585;1252;21961;-80
2023/12/18 05:50:59;;;;;;;9.50;7.00;;;;;;;8.08;100.00;101533.42;111364;1252;21979;-82
2023/12/18 05:53:31;;;;;;;12.60;9.10;;;;;;;8.08;100.00;101533.08;111791;1251;21973;-82
2023/12/18 05:56:09;;;;;;;13.50;9.30;;;;;;;8.08;100.00;101532.90;111551;1252;22243;-83
2023/12/18 05:58:42;;;;;;;12.30;10.10;;;;;;;8.07;100.00;101531.52;111631;1252;22019;-81
2023/12/18 06:01:12;;;;;;;13.20;10.10;;;;;;;8.07;100.00;101531.01;111675;1252;22028;-83
2023/12/18 06:03:42;;;;;;;13.40;9.10;;;;;;;8.04;100.00;101525.33;111128;1257;23020;-82
2023/12/18 06:06:17;;;;;;;15.30;10.20;;;;;;;8.10;100.00;101534.09;111164;1257;23751;-82
2023/12/18 06:09:00;;;;;;;13.10;10.50;;;;;;;8.11;100.00;101534.09;110559;1263;23028;-81
2023/12/18 06:11:33;;;;;;;20.80;15.10;;;;;;;8.12;100.00;101537.02;110665;1264;22010;-80
2023/12/18 06:14:12;;;;;;;17.20;13.80;;;;;;;8.11;100.00;101540.16;110721;1263;23044;-81
2023/12/18 06:16:42;;;;;;;20.50;15.40;;;;;;;8.11;100.00;101539.98;110630;1264;22454;-81
2023/12/18 06:19:13;;;;;;;13.50;11.60;;;;;;;8.11;100.00;101540.69;110700;1264;23081;-82
2023/12/18 06:21:46;;;;;;;12.30;10.50;;;;;;;8.12;100.00;101540.15;110767;1259;22817;-81
2023/12/18 06:24:19;;;;;;;13.40;10.20;;;;;;;8.12;100.00;101542.92;110905;1251;22745;-82
2023/12/18 06:26:52;;;;;;;;;;;;;;;8.10;100.00;101538.44;110983;1256;22966;-81
2023/12/18 06:29:26;;;;;;;12.50;10.20;;;;;;;7.99;100.00;101542.52;111207;1256;24356;-79
2023/12/18 06:32:25;;;;;;;21.40;15.30;;;;;;;7.96;100.00;101544.09;111289;1256;21988;-80
2023/12/18 06:35:00;;;;;;;21.70;16.70;;;;;;;7.97;100.00;101543.91;110743;1261;21967;-79
2023/12/18 06:37:36;;;;;;;22.90;18.00;;;;;;;8.00;100.00;101541.27;110481;1261;23868;-79
2023/12/18 06:40:14;;;;;;;;;;;;;;;8.03;100.00;101540.57;110708;1262;21973;-81
2023/12/18 06:42:48;;;;;;;14.60;10.80;;;;;;;7.93;100.00;101541.16;110914;1261;22741;-81
2023/12/18 06:45:18;;;;;;;13.40;9.90;;;;;;;7.92;100.00;101545.67;110823;1258;21975;-80
2023/12/18 06:47:52;;;;;;;15.50;10.10;;;;;;;7.95;100.00;101547.91;111111;1258;23049;-81
2023/12/18 06:50:35;;;;;;;16.50;13.10;;;;;;;7.97;100.00;101548.76;111135;1248;21989;-81
2023/12/18 06:53:07;;;;;;;16.60;12.30;;;;;;;7.97;100.00;101551.36;111028;1258;21963;-82
2023/12/18 06:55:40;;;;;;;17.70;12.00;;;;;;;7.99;100.00;101552.73;111060;1258;21968;-82
2023/12/18 06:58:26;;;;;;;;;;;;;;;;;;;;;
2023/12/18 07:01:05;;;;;;;13.70;10.80;;;;;;;8.00;100.00;101552.04;110563;1262;213740;-83
2023/12/18 07:04:02;;;;;;;10.90;9.20;;;;;;;7.97;100.00;101549.98;110463;1262;22397;-83
2023/12/18 07:07:10;;;;;;;11.80;8.60;;;;;;;7.90;100.00;101542.92;110547;1262;21969;-81
2023/12/18 07:09:59;;;;;;;12.70;9.50;;;;;;;7.93;100.00;101545.33;110716;1257;21990;-82
2023/12/18 07:14:01;;;;;;;9.50;8.40;;;;;;;7.91;100.00;101544.14;111106;1247;23082;-82
2023/12/18 07:17:13;;;;;;;12.90;9.70;;;;;;;7.91;100.00;101543.45;111713;1251;21983;-81
2023/12/18 07:20:21;;;;;;;12.40;8.30;;;;;;;7.91;100.00;101544.31;111698;1246;21950;-82
2023/12/18 07:23:34;;;;;;;9.50;8.50;;;;;;;7.90;100.00;101542.23;111630;1251;22014;-81
2023/12/18 07:26:42;;;;;;;10.90;9.20;;;;;;;7.89;100.00;101546.58;111294;1256;22274;-82
2023/12/18 07:29:40;;;;;;;11.30;9.40;;;;;;;7.92;100.00;101550.52;111254;1256;21961;-83
2023/12/18 07:32:50;;;;;;;12.50;10.50;;;;;;;7.96;100.00;101559.16;111134;1243;21965;-81
2023/12/18 07:36:19;;;;;;;10.80;9.20;;;;;;;7.92;100.00;101565.11;111216;1256;22825;-81
2023/12/18 07:39:42;;;;;;;18.30;11.30;;;;;;;7.89;100.00;101568.77;110943;1261;21949;-81
2023/12/18 07:42:33;;;;;;;;;;;;;;;7.91;100.00;101574.46;110071;1267;23264;-83
2023/12/18 07:45:48;;;;;;;15.30;11.20;;;;;;;7.83;100.00;101575.04;110477;1263;22729;-83
2023/12/18 07:49:19;;;;;;;;;;;;;;;;;;;;;
2023/12/18 07:52:09;;;;;;;13.50;10.30;;;;;;;7.87;100.00;101582.98;110070;1269;21997;-82
2023/12/18 07:55:09;;;;;;;;;;;;;;;;;;;;;
2023/12/18 07:57:44;;;;;;;19.40;15.70;;;;;;;7.94;100.00;101597.66;110000;1269;21994;-84
2023/12/18 08:00:42;;;;;;;17.20;13.30;;;;;;;7.93;100.00;101597.33;109969;1260;23031;-82
2023/12/18 08:03:36;;;;;;;19.60;16.20;;;;;;;7.92;100.00;101596.81;110003;1269;22006;-84
2023/12/18 08:06:17;;;;;;;19.40;14.90;;;;;;;7.95;100.00;101593.68;109950;1269;21992;-85
2023/12/18 08:08:54;;;;;;;19.50;16.80;;;;;;;7.93;100.00;101589.36;109601;1259;23485;-84
2023/12/18 08:11:46;;;;;;;22.90;16.90;;;;;;;7.92;100.00;101585.90;110072;1260;23029;-80
2023/12/18 08:14:36;;;;;;;19.20;15.00;;;;;;;7.96;100.00;101582.41;110521;1263;21991;-83
2023/12/18 08:17:28;;;;;;;21.90;16.20;;;;;;;8.03;100.00;101570.55;110506;1260;21975;-83
2023/12/18 08:20:15;;;;;;;15.30;13.00;;;;;;;8.07;100.00;101581.79;110510;1265;23592;-81
2023/12/18 08:23:06;;;;;;;18.40;14.40;;;;;;;8.06;100.00;101584.06;109680;1271;22041;-82
2023/12/18 08:25:53;;;;;;;21.20;15.70;;;;;;;8.04;100.00;101586.85;109695;1271;23630;-82
2023/12/18 08:28:35;;;;;;;17.60;14.90;;;;;;;8.03;100.00;101588.77;109409;1260;22001;-84
2023/12/18 08:31:37;;;;;;;20.30;15.10;;;;;;;8.04;100.00;101591.36;109495;1273;24448;-84
2023/12/18 08:34:21;;;;;;;21.30;16.70;;;;;;;8.05;100.00;101590.14;109805;1270;21981;-83
2023/12/18 08:37:19;;;;;;;21.40;15.00;;;;;;;8.04;100.00;101586.67;110324;1267;21989;-83
2023/12/18 08:40:45;;;;;;;19.20;15.00;;;;;;;8.02;100.00;101589.46;110307;1267;21984;-82
2023/12/18 08:43:41;;;;;;;15.60;12.90;;;;;;;8.01;100.00;101592.24;110260;1267;22916;-82
2023/12/18 08:46:39;;;;;;;16.90;14.50;;;;;;;8.02;100.00;101591.53;110011;1266;23030;-83
2023/12/18 08:49:21;;;;;;;19.90;17.10;;;;;;;8.06;100.00;101594.45;110309;1266;22038;-84
2023/12/18 08:52:35;;;;;;;21.30;18.40;;;;;;;8.09;100.00;101595.48;110409;1264;24197;-84
2023/12/18 08:55:37;;;;;;;;;;;;;;;;;;;;;
2023/12/18 08:58:30;;;;;;;21.20;15.80;;;;;;;8.19;100.00;101595.75;110977;1259;22986;-81
2023/12/18 09:01:10;;;;;;;17.00;14.30;;;;;;;8.25;100.00;101594.31;110889;1259;23612;-82
2023/12/18 09:04:03;;;;;;;18.50;15.70;;;;;;;8.30;100.00;101593.23;111076;1259;21996;-84
2023/12/18 09:06:43;;;;;;;14.40;12.90;;;;;;;8.34;100.00;101590.95;110900;1259;23637;-84
2023/12/18 09:09:20;;;;;;;14.80;13.10;;;;;;;8.35;100.00;101590.77;110942;1259;22018;-82
2023/12/18 09:11:55;;;;;;;13.80;12.20;;;;;;;8.31;100.00;101594.09;111017;1258;22196;-83
2023/12/18 09:14:39;;;;;;;16.00;13.80;;;;;;;8.26;100.00;101589.80;110977;1259;21973;-82
2023/12/18 09:17:23;;;;;;;14.30;12.90;;;;;;;8.21;100.00;101579.43;110881;1257;21972;-82
2023/12/18 09:20:05;;;;;;;14.90;13.40;;;;;;;8.16;100.00;101577.40;110907;1261;22508;-82
2023/12/18 09:22:38;;;;;;;14.20;12.80;;;;;;;8.11;100.00;101582.98;110899;1261;21984;-82
2023/12/18 09:25:34;;;;;;;19.80;15.30;;;;;;;8.07;100.00;101576.42;110848;1260;22102;-81
2023/12/18 09:28:16;;;;;;;24.70;18.60;;;;;;;8.07;100.00;101572.44;110772;1261;22053;-78
2023/12/18 09:30:56;;;;;;;26.60;18.80;;;;;;;8.06;100.00;101568.98;110811;1262;23660;-82
2023/12/18 09:33:35;;;;;;;16.00;14.30;;;;;;;8.06;100.00;101563.44;110763;1261;22741;-81
2023/12/18 09:36:20;;;;;;;14.40;12.90;;;;;;;8.10;100.00;101562.38;110846;1258;22449;-83
2023/12/18 09:38:56;;;;;;;13.90;12.30;;;;;;;8.12;100.00;101567.02;111243;1252;21957;-84
2023/12/18 09:41:26;;;;;;;14.60;13.10;;;;;;;8.14;100.00;101568.39;111346;1256;23532;-82
2023/12/18 09:43:59;;;;;;;16.60;13.90;;;;;;;8.16;100.00;101571.67;111014;1256;23793;-84
2023/12/18 09:46:34;;;;;;;20.10;16.00;;;;;;;8.19;100.00;101575.98;111260;1256;23749;-82
2023/12/18 09:49:09;;;;;;;20.70;15.90;;;;;;;8.20;100.00;101579.63;111238;1251;21975;-83
2023/12/18 09:51:47;;;;;;;17.80;14.90;;;;;;;8.17;100.00;101577.03;111142;1256;21975;-78
2023/12/18 09:55:31;;;;;;;22.40;16.40;;;;;;;8.16;100.00;101574.10;110769;1256;23704;-79
2023/12/18 10:02:04;;;;;;;18.90;15.60;;;;;;;8.18;100.00;101543.90;110537;1260;22018;-79
2023/12/18 10:05:15;;;;;;;16.80;14.70;;;;;;;8.23;100.00;101538.84;109774;1264;22061;-78
2023/12/18 10:08:27;;;;;;;14.80;13.30;;;;;;;8.24;100.00;101536.75;110164;1264;21976;-77
2023/12/18 10:11:30;;;;;;;19.70;13.60;;;;;;;8.22;100.00;101543.70;110152;1259;21972;-78
2023/12/18 10:14:40;;;;;;;16.80;15.10;;;;;;;8.21;100.00;101560.17;109810;1268;23036;-78
2023/12/18 10:17:30;;;;;;;32.00;21.40;;;;;;;8.12;100.00;101547.42;110132;1262;23713;-77
2023/12/18 10:24:16;;;;;;;18.50;16.00;;;;;;;8.14;100.00;101535.96;110397;1262;21984;-78
2023/12/18 10:27:20;;;;;;;20.30;15.30;;;;;;;8.16;100.00;101532.65;109734;1268;23061;-79
2023/12/18 10:30:06;;;;;;;15.90;14.00;;;;;;;8.18;100.00;101529.52;109756;1268;23043;-79
2023/12/18 10:32:56;;;;;;;16.70;14.60;;;;;;;8.19;100.00;101525.35;110141;1263;24316;-78
2023/12/18 10:35:54;;;;;;;16.80;15.10;;;;;;;8.19;100.00;101527.59;110330;1258;22559;-79
2023/12/18 10:39:09;;;;;;;19.80;15.80;;;;;;;8.17;100.00;101525.02;110704;1258;24035;-76
2023/12/18 10:42:35;;;;;;;20.60;17.50;;;;;;;8.13;100.00;101528.36;110223;1264;23212;-77
2023/12/18 10:45:14;;;;;;;19.40;17.30;;;;;;;8.12;100.00;101523.33;110781;1257;21994;-83
2023/12/18 10:47:49;;;;;;;20.00;16.30;;;;;;;8.06;100.00;101507.78;111128;1256;21963;-80
2023/12/18 10:50:57;;;;;;;21.50;19.30;;;;;;;8.11;100.00;101513.46;110767;1261;21984;-83
2023/12/18 10:54:06;;;;;;;17.60;15.50;;;;;;;8.08;100.00;101511.92;110040;1267;21992;-84
2023/12/18 10:57:28;;;;;;;15.90;14.20;;;;;;;8.04;100.00;101510.41;110324;1267;22985;-84
2023/12/18 11:01:24;;;;;;;;;;;;;;;;;;;;;
2023/12/18 11:04:24;;;;;;;15.50;13.80;;;;;;;8.04;100.00;101521.14;110268;1267;22004;-83
2023/12/18 11:07:45;;;;;;;16.90;14.20;;;;;;;8.09;100.00;101523.02;110362;1267;21951;-85
2023/12/18 11:11:09;;;;;;;;;;;;;;;;;;;;;
2023/12/18 11:15:29;;;;;;;;;;;;;;;;;;;;;
2023/12/18 11:19:13;;;;;;;16.10;14.50;;;;;;;8.03;100.00;101552.36;111241;1244;23017;-81
2023/12/18 11:23:05;;;;;;;19.30;15.90;;;;;;;8.03;100.00;101553.41;110741;1264;22364;-81
2023/12/18 11:26:37;;;;;;;17.60;15.70;;;;;;;7.91;100.00;101526.63;109301;1276;23251;-81
2023/12/18 11:30:48;;;;;;;;;;;;;;;;;;;;;
2023/12/18 11:34:17;;;;;;;19.30;17.30;;;;;;;7.94;100.00;101527.47;108975;1280;24413;-82
2023/12/18 11:37:42;;;;;;;;;;;;;;;;;;;;;
2023/12/18 11:40:56;;;;;;;27.70;24.40;;;;;;;7.94;100.00;101536.83;109203;1279;22118;-81
2023/12/18 11:44:30;;;;;;;;;;;;;;;;;;;;;
2023/12/18 11:48:15;;;;;;;;;;;;;;;;;;;;;
2023/12/18 11:52:00;;;;;;;;;;;;;;;;;;;;;
2023/12/18 11:55:13;;;;;;;21.40;18.00;;;;;;;8.10;100.00;101538.43;109110;1279;22009;-83
2023/12/18 11:58:07;;;;;;;22.40;20.20;;;;;;;8.14;100.00;101535.45;109274;1270;22279;-83
2023/12/18 12:01:34;;;;;;;20.80;18.50;;;;;;;8.17;100.00;101524.51;110639;1264;22000;-82
2023/12/18 12:04:24;;;;;;;19.10;17.20;;;;;;;8.20;100.00;101520.65;110576;1264;22003;-82
2023/12/18 12:10:26;;;;;;;17.80;15.90;;;;;;;8.23;100.00;101517.16;109496;1274;21991;-82
2023/12/18 12:13:04;;;;;;;18.60;16.80;;;;;;;8.24;100.00;101515.25;109440;1274;22003;-83
2023/12/18 12:16:37;;;;;;;15.30;13.80;;;;;;;8.22;100.00;101520.48;109471;1273;21985;-83
2023/12/18 12:19:58;;;;;;;;;;;;;;;;;;;;;
2023/12/18 12:23:31;;;;;;;;;;;;;;;;;;;;;
2023/12/18 12:27:07;;;;;;;15.40;13.00;;;;;;;8.15;100.00;101509.95;109151;1278;22970;-84
2023/12/18 12:30:24;;;;;;;15.80;14.20;;;;;;;8.14;100.00;101507.20;109603;1268;21994;-85
2023/12/18 12:33:53;;;;;;;19.60;16.80;;;;;;;8.08;100.00;101498.75;109438;1274;22011;-85
2023/12/18 12:37:20;;;;;;;19.50;17.00;;;;;;;8.08;100.00;101507.76;108930;1280;21993;-85
2023/12/18 12:40:29;;;;;;;;;;;;;;;;;;;;;
2023/12/18 12:43:57;;;;;;;17.20;15.30;;;;;;;8.23;100.00;101520.11;109415;1273;23992;-85
2023/12/18 12:47:49;;;;;;;16.20;14.50;;;;;;;8.28;100.00;101519.20;110378;1262;22004;-83
2023/12/18 12:51:08;;;;;;;;;;;;;;;;;;;;;
2023/12/18 12:54:12;;;;;;;20.20;17.30;;;;;;;8.34;100.00;101526.77;111083;1247;23038;-85
2023/12/18 12:57:48;;;;;;;;;;;;;;;;;;;;;
2023/12/18 13:00:35;;;;;;;28.40;24.30;;;;;;;8.39;100.00;101523.61;110188;1263;23123;-83
2023/12/18 13:03:31;;;;;;;22.60;17.60;;;;;;;8.39;100.00;101517.88;109882;1269;22022;-86
2023/12/18 13:06:33;;;;;;;15.90;14.30;;;;;;;8.36;100.00;101515.48;109853;1269;21988;-85
2023/12/18 13:10:03;;;;;;;16.50;15.00;;;;;;;8.28;100.00;101516.77;109777;1266;21981;-85
2023/12/18 13:13:28;;;;;;;15.80;14.30;;;;;;;8.10;100.00;101492.15;109215;1275;22002;-85
2023/12/18 13:16:44;;;;;;;15.40;14.00;;;;;;;8.13;100.00;101512.92;109308;1275;23680;-86
2023/12/18 13:20:38;;;;;;;17.10;15.40;;;;;;;8.12;100.00;101519.70;109841;1272;22633;-85